createdAt,value
2023-04-08T00:00:45.498Z,1.83
2023-04-08T00:03:16.354Z,1.97
2023-04-08T00:05:43.899Z,2.10
2023-04-08T00:08:11.320Z,1.73
2023-04-08T00:10:38.676Z,1.93
2023-04-08T00:13:06.079Z,2.00
2023-04-08T00:15:33.400Z,1.90
2023-04-08T00:18:00.786Z,2.00
2023-04-08T00:20:28.129Z,1.87
2023-04-08T00:22:55.471Z,2.20
2023-04-08T00:25:25.406Z,1.70
2023-04-08T00:27:53.192Z,2.03
2023-04-08T00:30:21.653Z,2.10
2023-04-08T00:32:49.064Z,2.00
2023-04-08T00:35:16.503Z,2.00
2023-04-08T00:37:43.988Z,1.73
2023-04-08T00:40:14.267Z,1.83
2023-04-08T00:42:41.828Z,2.10
2023-04-08T00:45:09.813Z,1.90
2023-04-08T00:47:37.349Z,2.00
2023-04-08T00:50:05.210Z,2.17
2023-04-08T00:52:32.538Z,2.20
2023-04-08T00:55:00.007Z,2.10
2023-04-08T00:57:27.634Z,2.00
2023-04-08T00:59:55.368Z,2.00
2023-04-08T01:02:44.676Z,1.77
2023-04-08T01:05:33.511Z,1.57
2023-04-08T01:08:05.631Z,1.80
2023-04-08T01:10:38.269Z,2.13
2023-04-08T01:13:08.839Z,1.87
2023-04-08T01:15:39.416Z,1.60
2023-04-08T01:18:08.868Z,1.60
2023-04-08T01:20:36.550Z,1.53
2023-04-08T01:23:37.403Z,1.90
2023-04-08T01:26:04.806Z,1.77
2023-04-08T01:28:34.368Z,1.90
2023-04-08T01:31:03.671Z,1.87
2023-04-08T01:33:33.102Z,1.67
2023-04-08T01:36:01.679Z,1.80
2023-04-08T01:38:29.566Z,1.80
2023-04-08T01:41:00.172Z,2.00
2023-04-08T01:43:28.284Z,2.27
2023-04-08T01:45:58.865Z,2.17
2023-04-08T01:48:27.223Z,2.00
2023-04-08T01:50:56.399Z,2.20
2023-04-08T01:53:24.187Z,2.20
2023-04-08T01:56:11.686Z,2.00
2023-04-08T01:58:42.780Z,2.10
2023-04-08T02:01:18.866Z,2.27
2023-04-08T02:03:48.048Z,2.30
2023-04-08T02:06:15.411Z,1.97
2023-04-08T02:08:42.658Z,2.43
2023-04-08T02:11:10.569Z,2.33
2023-04-08T02:13:37.909Z,2.23
2023-04-08T02:16:16.112Z,2.50
2023-04-08T02:18:51.949Z,2.47
2023-04-08T02:21:23.218Z,2.50
2023-04-08T02:23:51.497Z,2.60
2023-04-08T02:26:19.654Z,2.50
2023-04-08T02:28:50.502Z,2.53
2023-04-08T02:31:19.714Z,2.30
2023-04-08T02:33:48.420Z,2.63
2023-04-08T02:36:16.652Z,2.40
2023-04-08T02:38:50.408Z,2.67
2023-04-08T02:41:18.240Z,2.50
2023-04-08T02:43:46.249Z,2.60
2023-04-08T02:46:13.662Z,2.20
2023-04-08T02:48:41.284Z,2.30
2023-04-08T02:51:08.592Z,2.40
2023-04-08T02:53:35.865Z,2.40
2023-04-08T02:56:03.168Z,2.07
2023-04-08T02:58:30.693Z,2.43
2023-04-08T03:00:57.994Z,2.53
2023-04-08T03:03:29.769Z,2.70
2023-04-08T03:05:58.507Z,2.90
2023-04-08T03:08:26.203Z,2.50
2023-04-08T03:10:56.193Z,2.43
2023-04-08T03:13:23.572Z,2.50
2023-04-08T03:15:51.107Z,2.83
2023-04-08T03:18:18.617Z,2.43
2023-04-08T03:20:46.244Z,2.63
2023-04-08T03:23:13.904Z,2.87
2023-04-08T03:25:41.490Z,2.83
2023-04-08T03:28:09.154Z,3.10
2023-04-08T03:30:36.925Z,2.87
2023-04-08T03:33:08.199Z,2.77
2023-04-08T03:35:39.207Z,2.97
2023-04-08T03:38:07.347Z,2.60
2023-04-08T03:40:35.134Z,2.60
2023-04-08T03:43:02.748Z,2.50
2023-04-08T03:45:29.984Z,2.90
2023-04-08T03:47:57.382Z,3.27
2023-04-08T03:50:24.634Z,2.43
2023-04-08T03:52:52.042Z,2.67
2023-04-08T03:55:19.370Z,2.67
2023-04-08T03:57:49.762Z,3.03
2023-04-08T04:00:17.228Z,3.50
2023-04-08T04:02:44.798Z,3.20
2023-04-08T04:05:12.180Z,3.00
2023-04-08T04:07:39.436Z,2.90
2023-04-08T04:10:07.325Z,2.83
2023-04-08T04:12:34.738Z,3.27
2023-04-08T04:15:02.092Z,2.97
2023-04-08T04:17:29.607Z,2.43
2023-04-08T04:19:57.043Z,2.67
2023-04-08T04:22:24.840Z,2.80
2023-04-08T04:24:52.170Z,2.87
2023-04-08T04:27:19.497Z,2.63
2023-04-08T04:29:46.806Z,2.77
2023-04-08T04:32:14.073Z,3.07
2023-04-08T04:34:41.539Z,2.70
2023-04-08T04:37:08.858Z,3.10
2023-04-08T04:39:36.517Z,2.80
2023-04-08T04:42:03.803Z,2.60
2023-04-08T04:44:31.346Z,2.50
2023-04-08T04:46:58.633Z,2.60
2023-04-08T04:49:26.206Z,2.40
2023-04-08T04:51:53.711Z,2.60
2023-04-08T04:54:21.051Z,2.20
2023-04-08T04:56:48.312Z,2.57
2023-04-08T04:59:15.961Z,2.63
2023-04-08T05:01:43.484Z,2.10
2023-04-08T05:04:10.871Z,2.40
2023-04-08T05:06:38.184Z,2.40
2023-04-08T05:09:05.566Z,2.53
2023-04-08T05:11:32.788Z,2.00
2023-04-08T05:14:00.036Z,2.47
2023-04-08T05:16:27.465Z,2.50
2023-04-08T05:18:54.765Z,1.90
2023-04-08T05:21:22.047Z,1.80
2023-04-08T05:23:51.212Z,1.60
2023-04-08T05:26:22.367Z,2.00
2023-04-08T05:28:51.861Z,1.87
2023-04-08T05:31:20.767Z,1.90
2023-04-08T05:33:48.617Z,2.60
2023-04-08T05:36:16.394Z,1.70
2023-04-08T05:38:44.590Z,1.60
2023-04-08T05:41:12.132Z,1.40
2023-04-08T05:43:39.620Z,1.30
2023-04-08T05:46:10.845Z,1.60
2023-04-08T05:48:38.343Z,1.70
2023-04-08T05:51:06.146Z,1.43
2023-04-08T05:53:33.364Z,1.50
2023-04-08T05:56:00.963Z,1.20
2023-04-08T05:58:28.390Z,1.20
2023-04-08T06:00:55.800Z,1.10
2023-04-08T06:03:23.197Z,1.20
2023-04-08T06:05:51.258Z,1.00
2023-04-08T06:08:18.562Z,1.20
2023-04-08T06:10:52.514Z,1.25
2023-04-08T06:13:21.197Z,1.00
2023-04-08T06:15:51.780Z,1.13
2023-04-08T06:18:19.131Z,1.10
2023-04-08T06:20:46.648Z,1.05
2023-04-08T06:23:14.253Z,1.00
2023-04-08T06:25:42.155Z,0.90
2023-04-08T06:28:12.004Z,0.90
2023-04-08T06:30:39.489Z,1.20
2023-04-08T06:33:06.895Z,1.00
2023-04-08T06:35:34.309Z,1.10
2023-04-08T06:38:05.660Z,1.00
2023-04-08T06:40:33.089Z,1.08
2023-04-08T06:43:00.655Z,0.90
2023-04-08T06:45:28.613Z,1.20
2023-04-08T06:47:56.862Z,1.33
2023-04-08T06:50:24.241Z,0.97
2023-04-08T06:52:51.722Z,0.97
2023-04-08T06:55:19.172Z,0.75
2023-04-08T06:57:46.884Z,0.80
2023-04-08T07:00:15.334Z,1.00
2023-04-08T07:02:43.026Z,0.90
2023-04-08T07:05:10.926Z,1.00
2023-04-08T07:07:39.300Z,1.00
2023-04-08T07:10:09.701Z,0.80
2023-04-08T07:12:38.414Z,1.00
2023-04-08T07:15:06.871Z,1.00
2023-04-08T07:17:34.338Z,1.00
2023-04-08T07:20:01.992Z,0.90
2023-04-08T07:22:29.486Z,1.00
2023-04-08T07:24:56.906Z,1.00
2023-04-08T07:27:24.531Z,1.15
2023-04-08T07:29:55.155Z,0.93
2023-04-08T07:32:22.695Z,1.00
2023-04-08T07:34:50.736Z,0.80
2023-04-08T07:37:20.856Z,0.77
2023-04-08T07:39:50.163Z,1.13
2023-04-08T07:42:18.617Z,0.80
2023-04-08T07:44:46.896Z,0.80
2023-04-08T07:47:14.383Z,1.02
2023-04-08T07:49:41.786Z,0.77
2023-04-08T07:52:09.190Z,0.75
2023-04-08T07:54:36.575Z,0.85
2023-04-08T07:57:03.856Z,0.90
2023-04-08T07:59:33.820Z,0.70
2023-04-08T08:02:01.193Z,0.90
2023-04-08T08:04:29.238Z,0.73
2023-04-08T08:06:57.639Z,0.80
2023-04-08T08:09:25.539Z,1.00
2023-04-08T08:11:52.851Z,0.88
2023-04-08T08:14:20.295Z,0.70
2023-04-08T08:16:48.609Z,0.85
2023-04-08T08:19:16.332Z,0.77
2023-04-08T08:21:43.854Z,0.70
2023-04-08T08:24:11.106Z,0.70
2023-04-08T08:26:38.572Z,0.80
2023-04-08T08:29:08.915Z,0.70
2023-04-08T08:31:36.427Z,0.70
2023-04-08T08:34:03.906Z,0.75
2023-04-08T08:36:32.851Z,0.73
2023-04-08T08:39:02.180Z,0.80
2023-04-08T08:41:35.481Z,0.77
2023-04-08T08:44:06.001Z,0.70
2023-04-08T08:46:34.618Z,1.20
2023-04-08T08:49:02.554Z,0.60
2023-04-08T08:51:32.992Z,0.73
2023-04-08T08:54:04.462Z,0.65
2023-04-08T08:56:34.505Z,0.60
2023-04-08T08:59:02.394Z,0.60
2023-04-08T09:01:38.463Z,0.70
2023-04-08T09:04:12.423Z,0.70
2023-04-08T09:06:40.923Z,0.45
2023-04-08T09:09:11.929Z,0.50
2023-04-08T09:11:41.898Z,0.60
2023-04-08T09:14:22.470Z,0.63
2023-04-08T09:16:50.939Z,0.60
2023-04-08T09:19:21.559Z,0.60
2023-04-08T09:22:07.129Z,1.02
2023-04-08T09:24:35.146Z,0.60
2023-04-08T09:27:02.639Z,0.60
2023-04-08T09:29:33.470Z,0.50
2023-04-08T09:32:02.521Z,0.52
2023-04-08T09:34:32.582Z,0.50
2023-04-08T09:37:03.239Z,0.50
2023-04-08T09:39:32.357Z,1.10
2023-04-08T09:42:04.280Z,0.50
2023-04-08T09:44:33.415Z,0.47
2023-04-08T09:47:13.004Z,0.50
2023-04-08T09:49:57.020Z,0.40
2023-04-08T09:52:33.662Z,0.50
2023-04-08T09:55:06.148Z,0.40
2023-04-08T09:57:51.432Z,0.40
2023-04-08T10:00:19.602Z,0.57
2023-04-08T10:03:09.714Z,0.50
2023-04-08T10:05:43.712Z,0.68
2023-04-08T10:08:11.770Z,0.50
2023-04-08T10:10:40.976Z,0.50
2023-04-08T10:13:11.784Z,0.50
2023-04-08T10:15:41.035Z,0.50
2023-04-08T10:18:11.734Z,0.50
2023-04-08T10:20:39.024Z,0.57
2023-04-08T10:23:14.673Z,0.50
2023-04-08T10:25:43.367Z,0.50
2023-04-08T10:28:20.479Z,0.40
2023-04-08T10:30:57.712Z,0.47
2023-04-08T10:33:40.093Z,0.40
2023-04-08T10:36:15.551Z,0.60
2023-04-08T10:38:43.783Z,0.40
2023-04-08T10:41:14.353Z,0.50
2023-04-08T10:43:41.869Z,0.50
2023-04-08T10:46:12.159Z,0.40
2023-04-08T10:48:39.641Z,0.50
2023-04-08T10:51:07.186Z,0.50
2023-04-08T10:53:40.130Z,0.88
2023-04-08T10:56:19.019Z,0.40
2023-04-08T10:58:51.433Z,0.40
2023-04-08T11:01:19.592Z,0.57
2023-04-08T11:03:47.284Z,0.47
2023-04-08T11:06:17.882Z,0.60
2023-04-08T11:08:45.693Z,0.50
2023-04-08T11:11:13.458Z,0.50
2023-04-08T11:13:52.592Z,0.60
2023-04-08T11:16:23.251Z,0.40
2023-04-08T11:18:52.071Z,0.50
2023-04-08T11:21:23.149Z,0.40
2023-04-08T11:23:54.430Z,0.60
2023-04-08T11:26:22.534Z,0.40
2023-04-08T11:28:52.940Z,0.45
2023-04-08T11:34:23.763Z,0.50
2023-04-08T11:36:52.309Z,0.60
2023-04-08T11:39:23.890Z,0.60
2023-04-08T11:41:51.547Z,0.40
2023-04-08T11:44:19.252Z,0.65
2023-04-08T11:46:57.478Z,0.50
2023-04-08T11:49:25.092Z,0.50
2023-04-08T11:52:00.382Z,0.50
2023-04-08T11:54:32.659Z,0.43
2023-04-08T11:57:00.430Z,0.50
2023-04-08T11:59:29.557Z,0.57
2023-04-08T12:01:57.558Z,0.38
2023-04-08T12:04:24.994Z,0.50
2023-04-08T12:06:52.594Z,0.68
2023-04-08T12:09:20.021Z,0.50
2023-04-08T12:11:47.251Z,0.70
2023-04-08T12:14:15.442Z,0.50
2023-04-08T12:16:43.063Z,0.50
2023-04-08T12:19:10.873Z,0.80
2023-04-08T12:21:38.514Z,0.63
2023-04-08T12:24:05.903Z,0.40
2023-04-08T12:26:33.091Z,0.57
2023-04-08T12:29:00.918Z,0.60
2023-04-08T12:31:28.649Z,0.45
2023-04-08T12:33:56.026Z,0.50
2023-04-08T12:36:23.286Z,0.40
2023-04-08T12:38:50.974Z,0.50
2023-04-08T12:41:18.997Z,0.60
2023-04-08T12:43:46.613Z,0.70
2023-04-08T12:46:14.222Z,0.40
2023-04-08T12:48:41.664Z,0.68
2023-04-08T12:51:10.538Z,0.40
2023-04-08T12:53:37.871Z,0.50
2023-04-08T12:56:05.275Z,0.60
2023-04-08T12:58:32.618Z,0.60
2023-04-08T13:01:00.280Z,0.55
2023-04-08T13:03:31.210Z,0.50
2023-04-08T13:06:02.328Z,0.52
2023-04-08T13:08:30.027Z,0.50
2023-04-08T13:10:57.279Z,0.60
2023-04-08T13:13:29.013Z,0.90
2023-04-08T13:15:58.495Z,0.60
2023-04-08T13:18:34.885Z,0.45
2023-04-08T13:21:04.119Z,0.60
2023-04-08T13:23:31.452Z,0.60
2023-04-08T13:25:58.791Z,0.60
2023-04-08T13:28:26.236Z,0.40
2023-04-08T13:30:54.579Z,0.55
2023-04-08T13:33:22.492Z,0.50
2023-04-08T13:35:49.709Z,0.50
2023-04-08T13:38:18.999Z,0.60
2023-04-08T13:40:52.214Z,0.60
2023-04-08T13:43:20.779Z,0.63
2023-04-08T13:45:48.222Z,0.60
2023-04-08T13:48:19.856Z,0.50
2023-04-08T13:50:51.495Z,0.60
2023-04-08T13:53:23.689Z,0.40
2023-04-08T13:55:55.325Z,0.50
2023-04-08T13:58:24.442Z,0.57
2023-04-08T14:00:52.269Z,0.50
2023-04-08T14:03:21.549Z,0.60
2023-04-08T14:05:57.537Z,0.50
2023-04-08T14:08:27.000Z,0.60
2023-04-08T14:10:59.579Z,0.63
2023-04-08T14:13:26.943Z,0.40
2023-04-08T14:15:59.026Z,0.40
2023-04-08T14:18:26.704Z,0.50
2023-04-08T14:20:53.985Z,0.50
2023-04-08T14:23:21.382Z,0.60
2023-04-08T14:25:48.675Z,0.50
2023-04-08T14:28:16.177Z,0.60
2023-04-08T14:30:44.045Z,0.50
2023-04-08T14:33:11.933Z,0.70
2023-04-08T14:35:42.176Z,0.40
2023-04-08T14:38:18.868Z,0.40
2023-04-08T14:40:47.959Z,0.52
2023-04-08T14:43:15.562Z,0.50
2023-04-08T14:45:45.150Z,0.50
2023-04-08T14:48:12.492Z,0.68
2023-04-08T14:50:40.108Z,0.60
2023-04-08T14:53:07.828Z,0.50
2023-04-08T14:55:35.359Z,0.40
2023-04-08T14:58:02.842Z,0.60
2023-04-08T15:00:30.330Z,0.70
2023-04-08T15:02:57.747Z,0.50
2023-04-08T15:05:25.208Z,0.77
2023-04-08T15:07:52.768Z,0.40
2023-04-08T15:10:20.369Z,0.70
2023-04-08T15:12:47.709Z,0.52
2023-04-08T15:15:15.170Z,0.60
2023-04-08T15:17:42.589Z,0.70
2023-04-08T15:20:10.622Z,0.50
2023-04-08T15:22:38.011Z,0.80
2023-04-08T15:25:06.118Z,0.70
2023-04-08T15:27:34.667Z,0.45
2023-04-08T15:30:03.356Z,0.60
2023-04-08T15:32:32.856Z,0.60
2023-04-08T15:35:00.797Z,0.60
2023-04-08T15:37:28.622Z,0.40
2023-04-08T15:39:56.017Z,0.60
2023-04-08T15:42:23.633Z,0.70
2023-04-08T15:44:51.417Z,0.60
2023-04-08T15:47:26.029Z,0.50
2023-04-08T15:49:56.103Z,0.50
2023-04-08T15:52:23.419Z,0.50
2023-04-08T15:54:50.643Z,0.60
2023-04-08T15:57:18.117Z,0.60
2023-04-08T15:59:47.475Z,0.40
2023-04-08T16:02:15.253Z,0.50
2023-04-08T16:04:43.086Z,1.27
2023-04-08T16:07:10.823Z,1.00
2023-04-08T16:09:38.346Z,0.88
2023-04-08T16:12:06.058Z,1.53
2023-04-08T16:14:34.137Z,0.93
2023-04-08T16:17:01.453Z,1.20
2023-04-08T16:19:29.459Z,0.77
2023-04-08T16:21:56.771Z,0.70
2023-04-08T16:24:25.745Z,0.60
2023-04-08T16:26:54.985Z,0.53
2023-04-08T16:29:24.639Z,0.60
2023-04-08T16:31:55.132Z,0.60
2023-04-08T16:34:23.424Z,0.50
2023-04-08T16:36:50.946Z,0.83
2023-04-08T16:39:18.779Z,0.50
2023-04-08T16:41:46.420Z,0.60
2023-04-08T16:44:16.623Z,0.63
2023-04-08T16:46:44.027Z,0.50
2023-04-08T16:49:15.567Z,0.57
2023-04-08T16:51:44.930Z,0.53
2023-04-08T16:54:13.002Z,0.63
2023-04-08T16:56:44.544Z,0.60
2023-04-08T16:59:12.917Z,0.70
2023-04-08T17:01:40.621Z,0.60
2023-04-08T17:04:08.277Z,0.60
2023-04-08T17:06:40.268Z,2.13
2023-04-08T17:09:09.321Z,0.67
2023-04-08T17:11:36.659Z,0.80
2023-04-08T17:14:04.496Z,0.50
2023-04-08T17:16:37.788Z,0.60
2023-04-08T17:19:05.880Z,0.50
2023-04-08T17:21:33.747Z,0.70
2023-04-08T17:24:03.444Z,0.77
2023-04-08T17:26:33.855Z,0.60
2023-04-08T17:29:01.933Z,0.63
2023-04-08T17:31:51.043Z,0.60
2023-04-08T17:34:20.610Z,0.67
2023-04-08T17:36:50.712Z,0.63
2023-04-08T17:39:41.140Z,0.60
2023-04-08T17:42:11.277Z,0.80
2023-04-08T17:44:38.744Z,0.70
2023-04-08T17:47:06.153Z,1.57
2023-04-08T17:49:34.273Z,3.53
2023-04-08T17:52:02.361Z,4.63
2023-04-08T17:54:36.243Z,4.07
2023-04-08T17:57:05.277Z,7.07
2023-04-08T17:59:34.190Z,8.30
2023-04-08T18:02:01.531Z,6.33
2023-04-08T18:04:35.364Z,5.33
2023-04-08T18:07:05.454Z,3.10
2023-04-08T18:09:35.740Z,2.23
2023-04-08T18:12:04.901Z,2.37
2023-04-08T18:14:45.061Z,3.10
2023-04-08T18:17:17.915Z,2.40
2023-04-08T18:19:47.808Z,2.80
2023-04-08T18:22:19.407Z,2.50
2023-04-08T18:24:47.333Z,1.23
2023-04-08T18:27:15.168Z,1.40
2023-04-08T18:29:42.629Z,1.97
2023-04-08T18:32:10.009Z,2.23
2023-04-08T18:34:39.123Z,2.30
2023-04-08T18:37:06.387Z,2.00
2023-04-08T18:39:33.778Z,1.70
2023-04-08T18:42:01.713Z,2.00
2023-04-08T18:44:29.393Z,0.83
2023-04-08T18:47:19.261Z,0.90
2023-04-08T18:50:16.781Z,0.83
2023-04-08T18:52:44.952Z,1.43
2023-04-08T18:55:12.458Z,0.90
2023-04-08T18:57:39.930Z,1.20
2023-04-08T19:00:08.170Z,1.20
2023-04-08T19:02:36.037Z,1.20
2023-04-08T19:05:05.026Z,1.23
2023-04-08T19:07:35.137Z,2.00
2023-04-08T19:10:04.977Z,1.20
2023-04-08T19:12:45.765Z,1.43
2023-04-08T19:15:14.192Z,1.17
2023-04-08T19:17:42.654Z,1.47
2023-04-08T19:20:12.114Z,1.23
2023-04-08T19:22:43.193Z,1.10
2023-04-08T19:25:11.459Z,1.63
2023-04-08T19:27:39.259Z,1.63
2023-04-08T19:30:08.967Z,1.43
2023-04-08T19:32:36.843Z,1.50
2023-04-08T19:35:04.243Z,1.40
2023-04-08T19:37:32.633Z,2.27
2023-04-08T19:40:01.402Z,1.70
2023-04-08T19:42:34.022Z,1.57
2023-04-08T19:45:05.402Z,1.60
2023-04-08T19:47:34.057Z,1.60
2023-04-08T19:50:01.530Z,1.43
2023-04-08T19:52:29.473Z,1.30
2023-04-08T19:54:56.716Z,1.53
2023-04-08T19:57:43.786Z,1.20
2023-04-08T20:00:14.120Z,1.20
2023-04-08T20:02:42.684Z,1.27
2023-04-08T20:05:16.519Z,1.33
2023-04-08T20:07:44.127Z,1.30
2023-04-08T20:10:12.661Z,1.40
2023-04-08T20:12:41.651Z,1.00
2023-04-08T20:15:23.311Z,1.10
2023-04-08T20:17:51.575Z,1.20
2023-04-08T20:20:18.906Z,1.30
2023-04-08T20:22:46.791Z,1.40
2023-04-08T20:25:19.241Z,1.27
2023-04-08T20:27:49.025Z,1.43
2023-04-08T20:30:17.280Z,1.23
2023-04-08T20:32:47.737Z,1.00
2023-04-08T20:35:16.697Z,1.17
2023-04-08T20:37:48.184Z,1.40
2023-04-08T20:40:18.400Z,1.20
2023-04-08T20:42:46.013Z,2.20
2023-04-08T20:45:18.802Z,1.33
2023-04-08T20:47:47.244Z,1.73
2023-04-08T20:50:15.316Z,1.03
2023-04-08T20:52:44.795Z,1.23
2023-04-08T20:55:16.993Z,1.27
2023-04-08T20:57:44.990Z,0.97
2023-04-08T21:00:15.879Z,1.10
2023-04-08T21:02:44.187Z,3.27
2023-04-08T21:05:14.199Z,1.10
2023-04-08T21:07:46.002Z,0.83
2023-04-08T21:10:15.683Z,0.80
2023-04-08T21:12:43.657Z,1.10
2023-04-08T21:15:11.839Z,0.90
2023-04-08T21:17:39.206Z,1.10
2023-04-08T21:20:07.273Z,1.00
2023-04-08T21:22:34.962Z,1.07
2023-04-08T21:25:02.931Z,1.00
2023-04-08T21:27:30.645Z,1.53
2023-04-08T21:29:58.272Z,1.10
2023-04-08T21:32:26.490Z,1.17
2023-04-08T21:34:54.628Z,0.90
2023-04-08T21:37:22.956Z,1.23
2023-04-08T21:39:53.078Z,1.07
2023-04-08T21:42:25.247Z,1.20
2023-04-08T21:44:54.837Z,1.80
2023-04-08T21:47:22.530Z,1.20
2023-04-08T21:49:50.208Z,1.33
2023-04-08T21:52:18.028Z,1.17
2023-04-08T21:54:50.707Z,1.50
2023-04-08T21:57:18.305Z,1.20
2023-04-08T21:59:46.380Z,1.37
2023-04-08T22:02:13.765Z,1.27
2023-04-08T22:04:41.830Z,1.00
2023-04-08T22:07:17.633Z,1.30
2023-04-08T22:09:45.232Z,1.63
2023-04-08T22:12:12.571Z,1.27
2023-04-08T22:14:39.895Z,0.90
2023-04-08T22:17:07.455Z,2.00
2023-04-08T22:19:34.934Z,1.20
2023-04-08T22:22:05.007Z,1.47
2023-04-08T22:24:39.667Z,1.67
2023-04-08T22:27:09.957Z,1.93
2023-04-08T22:29:39.422Z,1.07
2023-04-08T22:32:13.362Z,1.47
2023-04-08T22:34:51.852Z,1.00
2023-04-08T22:37:24.358Z,1.00
2023-04-08T22:39:51.586Z,1.63
2023-04-08T22:42:19.692Z,1.10
2023-04-08T22:44:48.353Z,0.90
2023-04-08T22:47:17.497Z,1.27
2023-04-08T22:49:46.060Z,1.00
2023-04-08T22:52:14.582Z,1.00
2023-04-08T22:54:41.962Z,1.10
2023-04-08T22:57:09.436Z,0.80
2023-04-08T22:59:37.126Z,1.13
2023-04-08T23:02:07.868Z,0.90
2023-04-08T23:04:38.196Z,0.80
2023-04-08T23:07:09.359Z,1.07
2023-04-08T23:09:36.774Z,1.00
2023-04-08T23:12:05.904Z,1.10
2023-04-08T23:14:33.734Z,0.90
2023-04-08T23:17:05.023Z,1.00
2023-04-08T23:19:35.610Z,0.93
2023-04-08T23:22:02.900Z,0.80
2023-04-08T23:24:30.823Z,0.90
2023-04-08T23:26:59.029Z,0.97
2023-04-08T23:29:26.331Z,0.90
2023-04-08T23:31:53.982Z,1.07
2023-04-08T23:34:25.478Z,0.90
2023-04-08T23:36:53.288Z,0.90
2023-04-08T23:39:21.016Z,0.93
2023-04-08T23:41:48.877Z,0.83
2023-04-08T23:44:16.735Z,1.00
2023-04-08T23:46:44.046Z,0.90
2023-04-08T23:49:11.353Z,0.80
2023-04-08T23:51:39.023Z,1.40
2023-04-08T23:54:06.925Z,1.13
2023-04-08T23:56:34.621Z,1.27
2023-04-08T23:59:03.424Z,1.30
